Aviation Digital Data Service (ADDS)

Output produced by METARs form (1050 UTC 17 January 2017)
found at http://aviationweather.gov/adds/metars/
 
KDAN 170529Z 1706/1806 00000KT P6SM OVC025 
     FM170800 00000KT P6SM OVC015 
     FM171000 VRB03KT P6SM OVC008 
     FM171400 20005KT P6SM VCSH OVC015 
     FM180200 23007KT 4SM -SHRA OVC020